sensor_id;sensor_type;location;lat;lon;timestamp;temperature;humidity
41437;DHT22;27178;49.460;10.850;2023-09-12T00:01:07;25.10;60.00
41437;DHT22;27178;49.460;10.850;2023-09-12T00:03:36;25.10;60.40
41437;DHT22;27178;49.460;10.850;2023-09-12T00:06:05;25.10;60.20
41437;DHT22;27178;49.460;10.850;2023-09-12T00:08:33;25.10;60.40
41437;DHT22;27178;49.460;10.850;2023-09-12T00:11:03;25.10;60.40
41437;DHT22;27178;49.460;10.850;2023-09-12T00:13:32;25.00;60.40
41437;DHT22;27178;49.460;10.850;2023-09-12T00:16:01;25.00;60.40
41437;DHT22;27178;49.460;10.850;2023-09-12T00:18:31;25.00;60.50
41437;DHT22;27178;49.460;10.850;2023-09-12T00:21:01;25.00;60.70
41437;DHT22;27178;49.460;10.850;2023-09-12T00:23:29;24.90;60.70
41437;DHT22;27178;49.460;10.850;2023-09-12T00:25:58;24.90;60.90
41437;DHT22;27178;49.460;10.850;2023-09-12T00:28:27;24.90;61.00
41437;DHT22;27178;49.460;10.850;2023-09-12T00:30:55;24.80;61.10
41437;DHT22;27178;49.460;10.850;2023-09-12T00:33:23;24.80;61.20
41437;DHT22;27178;49.460;10.850;2023-09-12T00:35:53;24.80;61.30
41437;DHT22;27178;49.460;10.850;2023-09-12T00:38:22;24.70;61.40
41437;DHT22;27178;49.460;10.850;2023-09-12T00:40:50;24.70;61.30
41437;DHT22;27178;49.460;10.850;2023-09-12T00:43:18;24.70;61.40
41437;DHT22;27178;49.460;10.850;2023-09-12T00:45:47;24.60;61.40
41437;DHT22;27178;49.460;10.850;2023-09-12T00:48:17;24.60;62.50
41437;DHT22;27178;49.460;10.850;2023-09-12T00:50:47;24.60;61.70
41437;DHT22;27178;49.460;10.850;2023-09-12T00:53:19;24.60;61.80
41437;DHT22;27178;49.460;10.850;2023-09-12T00:55:51;24.50;61.80
41437;DHT22;27178;49.460;10.850;2023-09-12T00:58:23;24.50;61.90
41437;DHT22;27178;49.460;10.850;2023-09-12T01:00:53;24.50;62.00
41437;DHT22;27178;49.460;10.850;2023-09-12T01:03:21;24.50;62.00
41437;DHT22;27178;49.460;10.850;2023-09-12T01:05:51;24.40;62.00
41437;DHT22;27178;49.460;10.850;2023-09-12T01:08:21;24.40;62.20
41437;DHT22;27178;49.460;10.850;2023-09-12T01:10:50;24.30;62.20
41437;DHT22;27178;49.460;10.850;2023-09-12T01:13:20;24.30;62.20
41437;DHT22;27178;49.460;10.850;2023-09-12T01:15:49;24.30;62.40
41437;DHT22;27178;49.460;10.850;2023-09-12T01:18:17;24.20;62.40
41437;DHT22;27178;49.460;10.850;2023-09-12T01:21:03;24.20;62.50
41437;DHT22;27178;49.460;10.850;2023-09-12T01:23:44;24.20;63.00
41437;DHT22;27178;49.460;10.850;2023-09-12T01:26:29;24.10;63.00
41437;DHT22;27178;49.460;10.850;2023-09-12T01:28:59;24.10;63.10
41437;DHT22;27178;49.460;10.850;2023-09-12T01:31:29;24.10;63.80
41437;DHT22;27178;49.460;10.850;2023-09-12T01:34:01;24.00;63.00
41437;DHT22;27178;49.460;10.850;2023-09-12T01:36:36;23.90;63.10
41437;DHT22;27178;49.460;10.850;2023-09-12T01:39:04;23.90;63.10
41437;DHT22;27178;49.460;10.850;2023-09-12T01:41:35;23.90;63.30
41437;DHT22;27178;49.460;10.850;2023-09-12T01:44:08;23.90;63.40
41437;DHT22;27178;49.460;10.850;2023-09-12T01:46:37;23.90;63.60
41437;DHT22;27178;49.460;10.850;2023-09-12T01:49:07;23.90;63.50
41437;DHT22;27178;49.460;10.850;2023-09-12T01:51:37;23.90;63.50
41437;DHT22;27178;49.460;10.850;2023-09-12T01:54:07;23.80;63.60
41437;DHT22;27178;49.460;10.850;2023-09-12T01:56:36;23.80;63.70
41437;DHT22;27178;49.460;10.850;2023-09-12T01:59:06;23.70;63.80
41437;DHT22;27178;49.460;10.850;2023-09-12T02:01:34;23.70;64.00
41437;DHT22;27178;49.460;10.850;2023-09-12T02:04:03;23.70;64.00
41437;DHT22;27178;49.460;10.850;2023-09-12T02:06:36;23.70;64.20
41437;DHT22;27178;49.460;10.850;2023-09-12T02:09:04;23.60;64.20
41437;DHT22;27178;49.460;10.850;2023-09-12T02:11:33;23.60;64.40
41437;DHT22;27178;49.460;10.850;2023-09-12T02:14:01;23.50;64.50
41437;DHT22;27178;49.460;10.850;2023-09-12T02:16:31;23.50;64.60
41437;DHT22;27178;49.460;10.850;2023-09-12T02:19:00;23.50;64.80
41437;DHT22;27178;49.460;10.850;2023-09-12T02:21:29;23.50;64.80
41437;DHT22;27178;49.460;10.850;2023-09-12T02:23:57;23.40;64.90
41437;DHT22;27178;49.460;10.850;2023-09-12T02:26:25;23.40;65.00
41437;DHT22;27178;49.460;10.850;2023-09-12T02:28:54;23.30;65.10
41437;DHT22;27178;49.460;10.850;2023-09-12T02:31:22;23.30;65.20
41437;DHT22;27178;49.460;10.850;2023-09-12T02:33:52;23.30;65.40
41437;DHT22;27178;49.460;10.850;2023-09-12T02:36:21;23.30;65.50
41437;DHT22;27178;49.460;10.850;2023-09-12T02:38:50;23.30;65.50
41437;DHT22;27178;49.460;10.850;2023-09-12T02:41:18;23.30;65.60
41437;DHT22;27178;49.460;10.850;2023-09-12T02:43:47;23.30;65.50
41437;DHT22;27178;49.460;10.850;2023-09-12T02:46:17;23.30;65.50
41437;DHT22;27178;49.460;10.850;2023-09-12T02:48:46;23.30;65.50
41437;DHT22;27178;49.460;10.850;2023-09-12T02:51:16;23.30;65.50
41437;DHT22;27178;49.460;10.850;2023-09-12T02:53:44;23.20;65.40
41437;DHT22;27178;49.460;10.850;2023-09-12T02:56:13;23.20;66.40
41437;DHT22;27178;49.460;10.850;2023-09-12T02:58:41;23.20;65.50
41437;DHT22;27178;49.460;10.850;2023-09-12T03:01:14;23.20;65.50
41437;DHT22;27178;49.460;10.850;2023-09-12T03:03:43;23.20;65.90
41437;DHT22;27178;49.460;10.850;2023-09-12T03:06:16;23.10;65.80
41437;DHT22;27178;49.460;10.850;2023-09-12T03:08:45;23.10;66.10
41437;DHT22;27178;49.460;10.850;2023-09-12T03:11:14;23.40;66.40
41437;DHT22;27178;49.460;10.850;2023-09-12T03:13:42;23.10;66.40
41437;DHT22;27178;49.460;10.850;2023-09-12T03:16:11;23.00;66.40
41437;DHT22;27178;49.460;10.850;2023-09-12T03:18:40;23.00;66.50
41437;DHT22;27178;49.460;10.850;2023-09-12T03:21:09;23.00;66.60
41437;DHT22;27178;49.460;10.850;2023-09-12T03:23:39;23.00;66.60
41437;DHT22;27178;49.460;10.850;2023-09-12T03:26:07;22.90;66.60
41437;DHT22;27178;49.460;10.850;2023-09-12T03:28:36;22.90;66.50
41437;DHT22;27178;49.460;10.850;2023-09-12T03:31:06;22.90;66.50
41437;DHT22;27178;49.460;10.850;2023-09-12T03:33:35;22.90;66.50
41437;DHT22;27178;49.460;10.850;2023-09-12T03:36:04;22.90;66.40
41437;DHT22;27178;49.460;10.850;2023-09-12T03:38:33;22.90;66.40
41437;DHT22;27178;49.460;10.850;2023-09-12T03:41:03;22.80;66.30
41437;DHT22;27178;49.460;10.850;2023-09-12T03:43:33;22.80;66.30
41437;DHT22;27178;49.460;10.850;2023-09-12T03:46:01;22.80;66.50
41437;DHT22;27178;49.460;10.850;2023-09-12T03:48:30;22.70;66.50
41437;DHT22;27178;49.460;10.850;2023-09-12T03:50:59;22.70;66.60
41437;DHT22;27178;49.460;10.850;2023-09-12T03:53:27;22.70;66.70
41437;DHT22;27178;49.460;10.850;2023-09-12T03:55:57;22.70;66.90
41437;DHT22;27178;49.460;10.850;2023-09-12T03:58:27;22.70;67.10
41437;DHT22;27178;49.460;10.850;2023-09-12T04:00:55;22.60;67.10
41437;DHT22;27178;49.460;10.850;2023-09-12T04:03:23;22.60;67.10
41437;DHT22;27178;49.460;10.850;2023-09-12T04:05:52;22.70;67.10
41437;DHT22;27178;49.460;10.850;2023-09-12T04:08:20;22.60;67.20
41437;DHT22;27178;49.460;10.850;2023-09-12T04:10:48;22.60;67.20
41437;DHT22;27178;49.460;10.850;2023-09-12T04:13:17;22.60;67.30
41437;DHT22;27178;49.460;10.850;2023-09-12T04:15:46;22.60;67.40
41437;DHT22;27178;49.460;10.850;2023-09-12T04:18:15;22.50;67.50
41437;DHT22;27178;49.460;10.850;2023-09-12T04:20:43;22.50;67.50
41437;DHT22;27178;49.460;10.850;2023-09-12T04:23:12;22.50;67.60
41437;DHT22;27178;49.460;10.850;2023-09-12T04:25:42;22.50;67.60
41437;DHT22;27178;49.460;10.850;2023-09-12T04:28:11;22.50;67.80
41437;DHT22;27178;49.460;10.850;2023-09-12T04:30:39;22.50;67.80
41437;DHT22;27178;49.460;10.850;2023-09-12T04:33:13;22.50;67.80
41437;DHT22;27178;49.460;10.850;2023-09-12T04:35:41;22.40;67.80
41437;DHT22;27178;49.460;10.850;2023-09-12T04:38:09;22.40;67.80
41437;DHT22;27178;49.460;10.850;2023-09-12T04:40:37;22.40;67.90
41437;DHT22;27178;49.460;10.850;2023-09-12T04:43:06;22.40;67.90
41437;DHT22;27178;49.460;10.850;2023-09-12T04:45:35;22.40;68.00
41437;DHT22;27178;49.460;10.850;2023-09-12T04:48:04;22.40;68.10
41437;DHT22;27178;49.460;10.850;2023-09-12T04:50:40;22.40;68.20
41437;DHT22;27178;49.460;10.850;2023-09-12T04:53:08;22.30;68.60
41437;DHT22;27178;49.460;10.850;2023-09-12T04:55:37;22.30;68.30
41437;DHT22;27178;49.460;10.850;2023-09-12T04:58:06;22.20;68.40
41437;DHT22;27178;49.460;10.850;2023-09-12T05:00:34;22.20;68.60
41437;DHT22;27178;49.460;10.850;2023-09-12T05:03:04;22.10;68.70
41437;DHT22;27178;49.460;10.850;2023-09-12T05:05:35;22.10;68.90
41437;DHT22;27178;49.460;10.850;2023-09-12T05:08:04;22.10;69.10
41437;DHT22;27178;49.460;10.850;2023-09-12T05:10:33;22.10;68.90
41437;DHT22;27178;49.460;10.850;2023-09-12T05:13:01;22.20;69.00
41437;DHT22;27178;49.460;10.850;2023-09-12T05:15:29;22.20;68.90
41437;DHT22;27178;49.460;10.850;2023-09-12T05:17:58;22.20;68.70
41437;DHT22;27178;49.460;10.850;2023-09-12T05:20:26;22.20;68.70
41437;DHT22;27178;49.460;10.850;2023-09-12T05:22:56;22.20;68.60
41437;DHT22;27178;49.460;10.850;2023-09-12T05:25:24;22.10;68.40
41437;DHT22;27178;49.460;10.850;2023-09-12T05:27:54;22.20;68.40
41437;DHT22;27178;49.460;10.850;2023-09-12T05:30:23;22.10;68.30
41437;DHT22;27178;49.460;10.850;2023-09-12T05:32:52;22.10;68.40
41437;DHT22;27178;49.460;10.850;2023-09-12T05:35:21;22.10;68.50
41437;DHT22;27178;49.460;10.850;2023-09-12T05:37:50;22.10;68.50
41437;DHT22;27178;49.460;10.850;2023-09-12T05:40:20;22.10;68.50
41437;DHT22;27178;49.460;10.850;2023-09-12T05:42:49;22.10;68.50
41437;DHT22;27178;49.460;10.850;2023-09-12T05:45:18;22.00;68.40
41437;DHT22;27178;49.460;10.850;2023-09-12T05:47:46;22.00;68.40
41437;DHT22;27178;49.460;10.850;2023-09-12T05:50:15;22.00;68.40
41437;DHT22;27178;49.460;10.850;2023-09-12T05:52:43;22.00;68.40
41437;DHT22;27178;49.460;10.850;2023-09-12T05:55:12;22.00;68.50
41437;DHT22;27178;49.460;10.850;2023-09-12T05:57:42;22.00;68.60
41437;DHT22;27178;49.460;10.850;2023-09-12T06:00:11;22.00;68.90
41437;DHT22;27178;49.460;10.850;2023-09-12T06:02:42;22.00;70.00
41437;DHT22;27178;49.460;10.850;2023-09-12T06:05:10;21.90;69.00
41437;DHT22;27178;49.460;10.850;2023-09-12T06:07:39;22.00;69.20
41437;DHT22;27178;49.460;10.850;2023-09-12T06:10:08;22.00;69.30
41437;DHT22;27178;49.460;10.850;2023-09-12T06:12:37;22.00;69.30
41437;DHT22;27178;49.460;10.850;2023-09-12T06:15:08;22.00;69.40
41437;DHT22;27178;49.460;10.850;2023-09-12T06:17:36;22.00;69.50
41437;DHT22;27178;49.460;10.850;2023-09-12T06:20:06;22.00;69.50
41437;DHT22;27178;49.460;10.850;2023-09-12T06:22:34;22.10;69.60
41437;DHT22;27178;49.460;10.850;2023-09-12T06:25:04;22.10;69.70
41437;DHT22;27178;49.460;10.850;2023-09-12T06:27:32;22.10;69.80
41437;DHT22;27178;49.460;10.850;2023-09-12T06:30:01;22.10;69.70
41437;DHT22;27178;49.460;10.850;2023-09-12T06:32:31;22.10;69.90
41437;DHT22;27178;49.460;10.850;2023-09-12T06:34:59;22.10;70.00
41437;DHT22;27178;49.460;10.850;2023-09-12T06:37:27;22.20;70.10
41437;DHT22;27178;49.460;10.850;2023-09-12T06:39:56;22.20;70.20
41437;DHT22;27178;49.460;10.850;2023-09-12T06:42:24;22.20;70.20
41437;DHT22;27178;49.460;10.850;2023-09-12T06:44:52;22.20;70.20
41437;DHT22;27178;49.460;10.850;2023-09-12T06:47:21;22.30;70.40
41437;DHT22;27178;49.460;10.850;2023-09-12T06:49:51;22.30;70.20
41437;DHT22;27178;49.460;10.850;2023-09-12T06:52:22;22.30;70.20
41437;DHT22;27178;49.460;10.850;2023-09-12T06:54:51;22.30;70.20
41437;DHT22;27178;49.460;10.850;2023-09-12T06:57:19;22.30;70.30
41437;DHT22;27178;49.460;10.850;2023-09-12T06:59:47;22.40;70.40
41437;DHT22;27178;49.460;10.850;2023-09-12T07:02:16;22.40;70.50
41437;DHT22;27178;49.460;10.850;2023-09-12T07:04:45;22.40;70.80
41437;DHT22;27178;49.460;10.850;2023-09-12T07:07:15;22.40;70.90
41437;DHT22;27178;49.460;10.850;2023-09-12T07:09:43;22.50;71.30
41437;DHT22;27178;49.460;10.850;2023-09-12T07:12:12;22.50;71.10
41437;DHT22;27178;49.460;10.850;2023-09-12T07:14:40;22.50;71.10
41437;DHT22;27178;49.460;10.850;2023-09-12T07:17:08;22.50;71.20
41437;DHT22;27178;49.460;10.850;2023-09-12T07:19:37;22.60;71.50
41437;DHT22;27178;49.460;10.850;2023-09-12T07:22:07;22.60;71.50
41437;DHT22;27178;49.460;10.850;2023-09-12T07:24:36;22.70;71.90
41437;DHT22;27178;49.460;10.850;2023-09-12T07:27:05;22.70;71.90
41437;DHT22;27178;49.460;10.850;2023-09-12T07:29:33;22.70;72.00
41437;DHT22;27178;49.460;10.850;2023-09-12T07:32:01;22.80;72.00
41437;DHT22;27178;49.460;10.850;2023-09-12T07:34:30;22.90;72.20
41437;DHT22;27178;49.460;10.850;2023-09-12T07:36:58;22.90;72.30
41437;DHT22;27178;49.460;10.850;2023-09-12T07:39:26;23.00;72.40
41437;DHT22;27178;49.460;10.850;2023-09-12T07:41:57;23.00;72.50
41437;DHT22;27178;49.460;10.850;2023-09-12T07:44:28;23.10;72.70
41437;DHT22;27178;49.460;10.850;2023-09-12T07:46:56;23.10;72.70
41437;DHT22;27178;49.460;10.850;2023-09-12T07:49:25;23.20;72.70
41437;DHT22;27178;49.460;10.850;2023-09-12T07:51:53;23.30;72.70
41437;DHT22;27178;49.460;10.850;2023-09-12T07:54:24;23.30;72.60
41437;DHT22;27178;49.460;10.850;2023-09-12T07:56:52;23.40;72.70
41437;DHT22;27178;49.460;10.850;2023-09-12T07:59:22;23.50;72.70
41437;DHT22;27178;49.460;10.850;2023-09-12T08:01:50;23.50;72.70
41437;DHT22;27178;49.460;10.850;2023-09-12T08:04:19;23.60;72.70
41437;DHT22;27178;49.460;10.850;2023-09-12T08:06:48;23.70;72.30
41437;DHT22;27178;49.460;10.850;2023-09-12T08:09:46;23.70;72.50
41437;DHT22;27178;49.460;10.850;2023-09-12T08:12:12;23.80;72.50
41437;DHT22;27178;49.460;10.850;2023-09-12T08:14:42;23.90;72.30
41437;DHT22;27178;49.460;10.850;2023-09-12T08:17:12;23.90;72.30
41437;DHT22;27178;49.460;10.850;2023-09-12T08:19:41;24.00;72.50
41437;DHT22;27178;49.460;10.850;2023-09-12T08:22:10;24.00;72.50
41437;DHT22;27178;49.460;10.850;2023-09-12T08:24:39;24.10;72.20
41437;DHT22;27178;49.460;10.850;2023-09-12T08:27:07;24.20;71.80
41437;DHT22;27178;49.460;10.850;2023-09-12T08:29:36;24.20;71.40
41437;DHT22;27178;49.460;10.850;2023-09-12T08:32:06;24.20;71.80
41437;DHT22;27178;49.460;10.850;2023-09-12T08:34:34;24.30;71.40
41437;DHT22;27178;49.460;10.850;2023-09-12T08:37:03;24.40;71.20
41437;DHT22;27178;49.460;10.850;2023-09-12T08:39:41;24.40;70.80
41437;DHT22;27178;49.460;10.850;2023-09-12T08:42:12;24.50;70.50
41437;DHT22;27178;49.460;10.850;2023-09-12T08:44:41;24.60;70.90
41437;DHT22;27178;49.460;10.850;2023-09-12T08:47:12;24.60;70.70
41437;DHT22;27178;49.460;10.850;2023-09-12T08:49:42;24.70;70.80
41437;DHT22;27178;49.460;10.850;2023-09-12T08:52:10;24.70;70.30
41437;DHT22;27178;49.460;10.850;2023-09-12T08:54:39;24.80;70.10
41437;DHT22;27178;49.460;10.850;2023-09-12T08:57:07;24.90;69.80
41437;DHT22;27178;49.460;10.850;2023-09-12T08:59:38;24.90;69.60
41437;DHT22;27178;49.460;10.850;2023-09-12T09:02:09;25.00;69.70
41437;DHT22;27178;49.460;10.850;2023-09-12T09:04:39;25.00;69.40
41437;DHT22;27178;49.460;10.850;2023-09-12T09:07:09;25.10;69.30
41437;DHT22;27178;49.460;10.850;2023-09-12T09:09:40;25.10;69.20
41437;DHT22;27178;49.460;10.850;2023-09-12T09:12:09;25.20;69.00
41437;DHT22;27178;49.460;10.850;2023-09-12T09:14:38;25.30;69.30
41437;DHT22;27178;49.460;10.850;2023-09-12T09:17:06;25.30;68.90
41437;DHT22;27178;49.460;10.850;2023-09-12T09:19:56;25.30;68.80
41437;DHT22;27178;49.460;10.850;2023-09-12T09:22:24;25.40;68.60
41437;DHT22;27178;49.460;10.850;2023-09-12T09:25:09;25.50;68.60
41437;DHT22;27178;49.460;10.850;2023-09-12T09:27:38;25.50;68.30
41437;DHT22;27178;49.460;10.850;2023-09-12T09:30:07;25.60;68.40
41437;DHT22;27178;49.460;10.850;2023-09-12T09:32:35;25.60;68.30
41437;DHT22;27178;49.460;10.850;2023-09-12T09:35:07;25.70;68.50
41437;DHT22;27178;49.460;10.850;2023-09-12T09:37:38;25.70;68.10
41437;DHT22;27178;49.460;10.850;2023-09-12T09:40:07;25.80;68.00
41437;DHT22;27178;49.460;10.850;2023-09-12T09:42:36;25.90;68.00
41437;DHT22;27178;49.460;10.850;2023-09-12T09:45:06;25.90;67.80
41437;DHT22;27178;49.460;10.850;2023-09-12T09:47:34;25.90;67.80
41437;DHT22;27178;49.460;10.850;2023-09-12T09:50:03;26.00;67.70
41437;DHT22;27178;49.460;10.850;2023-09-12T09:52:33;26.10;67.60
41437;DHT22;27178;49.460;10.850;2023-09-12T09:55:02;26.10;67.50
41437;DHT22;27178;49.460;10.850;2023-09-12T09:57:36;26.20;67.40
41437;DHT22;27178;49.460;10.850;2023-09-12T10:00:07;26.20;67.20
41437;DHT22;27178;49.460;10.850;2023-09-12T10:02:42;26.30;67.40
41437;DHT22;27178;49.460;10.850;2023-09-12T10:05:13;26.40;67.30
41437;DHT22;27178;49.460;10.850;2023-09-12T10:07:48;26.40;67.20
41437;DHT22;27178;49.460;10.850;2023-09-12T10:10:18;26.50;67.20
41437;DHT22;27178;49.460;10.850;2023-09-12T10:12:50;26.60;67.30
41437;DHT22;27178;49.460;10.850;2023-09-12T10:15:20;26.60;66.90
41437;DHT22;27178;49.460;10.850;2023-09-12T10:17:56;26.70;66.80
41437;DHT22;27178;49.460;10.850;2023-09-12T10:20:27;26.70;66.50
41437;DHT22;27178;49.460;10.850;2023-09-12T10:23:06;26.90;66.60
41437;DHT22;27178;49.460;10.850;2023-09-12T10:25:38;26.90;66.40
41437;DHT22;27178;49.460;10.850;2023-09-12T10:28:07;27.00;66.30
41437;DHT22;27178;49.460;10.850;2023-09-12T10:30:36;27.10;66.10
41437;DHT22;27178;49.460;10.850;2023-09-12T10:33:05;27.20;66.00
41437;DHT22;27178;49.460;10.850;2023-09-12T10:35:36;27.30;66.10
41437;DHT22;27178;49.460;10.850;2023-09-12T10:38:07;27.40;65.80
41437;DHT22;27178;49.460;10.850;2023-09-12T10:40:37;27.50;65.70
41437;DHT22;27178;49.460;10.850;2023-09-12T10:43:11;27.50;65.50
41437;DHT22;27178;49.460;10.850;2023-09-12T10:45:41;27.60;65.50
41437;DHT22;27178;49.460;10.850;2023-09-12T10:48:09;27.70;65.90
41437;DHT22;27178;49.460;10.850;2023-09-12T10:50:39;27.80;65.20
41437;DHT22;27178;49.460;10.850;2023-09-12T10:53:13;27.90;65.10
41437;DHT22;27178;49.460;10.850;2023-09-12T10:55:42;28.00;64.50
41437;DHT22;27178;49.460;10.850;2023-09-12T10:58:25;28.10;64.80
41437;DHT22;27178;49.460;10.850;2023-09-12T11:01:24;28.20;64.50
41437;DHT22;27178;49.460;10.850;2023-09-12T11:03:53;28.30;64.00
41437;DHT22;27178;49.460;10.850;2023-09-12T11:06:24;28.30;64.00
41437;DHT22;27178;49.460;10.850;2023-09-12T11:09:20;28.40;63.80
41437;DHT22;27178;49.460;10.850;2023-09-12T11:11:55;28.50;63.40
41437;DHT22;27178;49.460;10.850;2023-09-12T11:14:24;28.60;63.20
41437;DHT22;27178;49.460;10.850;2023-09-12T11:17:23;28.70;62.90
41437;DHT22;27178;49.460;10.850;2023-09-12T11:19:52;28.90;62.80
41437;DHT22;27178;49.460;10.850;2023-09-12T11:22:23;28.90;63.00
41437;DHT22;27178;49.460;10.850;2023-09-12T11:24:53;29.10;62.70
41437;DHT22;27178;49.460;10.850;2023-09-12T11:27:24;29.10;62.00
41437;DHT22;27178;49.460;10.850;2023-09-12T11:29:53;30.60;63.20
41437;DHT22;27178;49.460;10.850;2023-09-12T11:32:31;29.30;62.10
41437;DHT22;27178;49.460;10.850;2023-09-12T11:35:05;29.50;61.60
41437;DHT22;27178;49.460;10.850;2023-09-12T11:37:33;29.50;61.40
41437;DHT22;27178;49.460;10.850;2023-09-12T11:40:16;29.70;61.70
41437;DHT22;27178;49.460;10.850;2023-09-12T11:42:45;29.80;60.90
41437;DHT22;27178;49.460;10.850;2023-09-12T11:45:14;29.80;61.40
41437;DHT22;27178;49.460;10.850;2023-09-12T11:47:46;29.90;61.30
41437;DHT22;27178;49.460;10.850;2023-09-12T11:50:28;30.00;61.30
41437;DHT22;27178;49.460;10.850;2023-09-12T11:53:01;30.10;60.60
41437;DHT22;27178;49.460;10.850;2023-09-12T11:55:35;30.20;60.50
41437;DHT22;27178;49.460;10.850;2023-09-12T11:58:04;30.30;60.30
41437;DHT22;27178;49.460;10.850;2023-09-12T12:00:33;30.40;60.40
41437;DHT22;27178;49.460;10.850;2023-09-12T12:03:02;30.50;60.10
41437;DHT22;27178;49.460;10.850;2023-09-12T12:05:32;30.10;59.70
41437;DHT22;27178;49.460;10.850;2023-09-12T12:08:02;30.60;59.80
41437;DHT22;27178;49.460;10.850;2023-09-12T12:10:35;30.70;59.70
41437;DHT22;27178;49.460;10.850;2023-09-12T12:13:05;30.80;59.50
41437;DHT22;27178;49.460;10.850;2023-09-12T12:15:35;30.90;59.50
41437;DHT22;27178;49.460;10.850;2023-09-12T12:18:04;31.00;59.40
41437;DHT22;27178;49.460;10.850;2023-09-12T12:20:32;31.10;59.20
41437;DHT22;27178;49.460;10.850;2023-09-12T12:23:01;31.20;59.00
41437;DHT22;27178;49.460;10.850;2023-09-12T12:25:32;31.30;58.90
41437;DHT22;27178;49.460;10.850;2023-09-12T12:28:03;31.40;58.50
41437;DHT22;27178;49.460;10.850;2023-09-12T12:30:32;31.50;58.40
41437;DHT22;27178;49.460;10.850;2023-09-12T12:33:02;31.60;58.30
41437;DHT22;27178;49.460;10.850;2023-09-12T12:35:59;31.70;58.20
41437;DHT22;27178;49.460;10.850;2023-09-12T12:38:32;31.80;57.80
41437;DHT22;27178;49.460;10.850;2023-09-12T12:41:26;31.90;57.80
41437;DHT22;27178;49.460;10.850;2023-09-12T12:44:07;32.00;57.60
41437;DHT22;27178;49.460;10.850;2023-09-12T12:46:48;32.10;57.60
41437;DHT22;27178;49.460;10.850;2023-09-12T12:49:17;32.20;57.10
41437;DHT22;27178;49.460;10.850;2023-09-12T12:51:46;32.30;57.40
41437;DHT22;27178;49.460;10.850;2023-09-12T12:54:15;32.40;57.20
41437;DHT22;27178;49.460;10.850;2023-09-12T12:56:43;32.50;57.00
41437;DHT22;27178;49.460;10.850;2023-09-12T12:59:15;32.60;56.80
41437;DHT22;27178;49.460;10.850;2023-09-12T13:01:44;32.70;56.40
41437;DHT22;27178;49.460;10.850;2023-09-12T13:04:14;32.80;56.30
41437;DHT22;27178;49.460;10.850;2023-09-12T13:06:44;32.90;56.10
41437;DHT22;27178;49.460;10.850;2023-09-12T13:09:12;33.00;55.80
41437;DHT22;27178;49.460;10.850;2023-09-12T13:11:40;33.10;55.90
41437;DHT22;27178;49.460;10.850;2023-09-12T13:14:09;33.10;55.80
41437;DHT22;27178;49.460;10.850;2023-09-12T13:16:40;33.20;55.80
41437;DHT22;27178;49.460;10.850;2023-09-12T13:19:09;33.20;55.40
41437;DHT22;27178;49.460;10.850;2023-09-12T13:21:39;33.30;55.60
41437;DHT22;27178;49.460;10.850;2023-09-12T13:24:09;33.30;55.60
41437;DHT22;27178;49.460;10.850;2023-09-12T13:26:38;33.40;55.50
41437;DHT22;27178;49.460;10.850;2023-09-12T13:29:07;33.50;55.40
41437;DHT22;27178;49.460;10.850;2023-09-12T13:31:36;33.60;55.60
41437;DHT22;27178;49.460;10.850;2023-09-12T13:34:06;33.70;55.30
41437;DHT22;27178;49.460;10.850;2023-09-12T13:36:34;33.80;55.00
41437;DHT22;27178;49.460;10.850;2023-09-12T13:39:03;34.00;55.00
41437;DHT22;27178;49.460;10.850;2023-09-12T13:41:33;34.10;54.60
41437;DHT22;27178;49.460;10.850;2023-09-12T13:44:01;34.20;54.50
41437;DHT22;27178;49.460;10.850;2023-09-12T13:46:30;34.40;54.20
41437;DHT22;27178;49.460;10.850;2023-09-12T13:48:58;34.50;52.90
41437;DHT22;27178;49.460;10.850;2023-09-12T13:51:31;34.70;53.50
41437;DHT22;27178;49.460;10.850;2023-09-12T13:54:00;34.80;53.50
41437;DHT22;27178;49.460;10.850;2023-09-12T13:56:28;34.90;53.40
41437;DHT22;27178;49.460;10.850;2023-09-12T13:58:56;35.10;53.20
41437;DHT22;27178;49.460;10.850;2023-09-12T14:01:25;35.20;53.20
41437;DHT22;27178;49.460;10.850;2023-09-12T14:04:01;35.30;53.10
41437;DHT22;27178;49.460;10.850;2023-09-12T14:06:33;35.40;52.70
41437;DHT22;27178;49.460;10.850;2023-09-12T14:09:04;35.60;52.60
41437;DHT22;27178;49.460;10.850;2023-09-12T14:11:32;35.60;52.30
41437;DHT22;27178;49.460;10.850;2023-09-12T14:14:03;35.80;52.20
41437;DHT22;27178;49.460;10.850;2023-09-12T14:16:35;35.80;51.70
41437;DHT22;27178;49.460;10.850;2023-09-12T14:19:04;36.00;51.60
41437;DHT22;27178;49.460;10.850;2023-09-12T14:21:34;36.00;51.50
41437;DHT22;27178;49.460;10.850;2023-09-12T14:24:04;36.10;51.30
41437;DHT22;27178;49.460;10.850;2023-09-12T14:26:33;36.20;51.20
41437;DHT22;27178;49.460;10.850;2023-09-12T14:29:02;36.20;51.20
41437;DHT22;27178;49.460;10.850;2023-09-12T14:31:32;36.30;51.00
41437;DHT22;27178;49.460;10.850;2023-09-12T14:34:00;36.30;50.90
41437;DHT22;27178;49.460;10.850;2023-09-12T14:36:29;36.50;50.90
41437;DHT22;27178;49.460;10.850;2023-09-12T14:38:59;36.50;50.70
41437;DHT22;27178;49.460;10.850;2023-09-12T14:41:27;36.60;50.40
41437;DHT22;27178;49.460;10.850;2023-09-12T14:43:55;36.70;50.30
41437;DHT22;27178;49.460;10.850;2023-09-12T14:46:24;36.80;49.80
41437;DHT22;27178;49.460;10.850;2023-09-12T14:48:53;36.90;50.70
41437;DHT22;27178;49.460;10.850;2023-09-12T14:51:28;37.00;49.70
41437;DHT22;27178;49.460;10.850;2023-09-12T14:54:01;37.00;49.50
41437;DHT22;27178;49.460;10.850;2023-09-12T14:56:30;37.00;49.10
41437;DHT22;27178;49.460;10.850;2023-09-12T14:58:59;37.00;49.30
41437;DHT22;27178;49.460;10.850;2023-09-12T15:01:28;37.00;49.40
41437;DHT22;27178;49.460;10.850;2023-09-12T15:03:56;37.00;49.30
41437;DHT22;27178;49.460;10.850;2023-09-12T15:06:25;37.10;49.40
41437;DHT22;27178;49.460;10.850;2023-09-12T15:08:54;37.10;49.40
41437;DHT22;27178;49.460;10.850;2023-09-12T15:11:24;37.20;49.10
41437;DHT22;27178;49.460;10.850;2023-09-12T15:13:52;37.30;49.00
41437;DHT22;27178;49.460;10.850;2023-09-12T15:16:21;37.30;48.90
41437;DHT22;27178;49.460;10.850;2023-09-12T15:18:50;37.30;48.60
41437;DHT22;27178;49.460;10.850;2023-09-12T15:21:19;37.40;48.40
41437;DHT22;27178;49.460;10.850;2023-09-12T15:23:48;37.30;48.30
41437;DHT22;27178;49.460;10.850;2023-09-12T15:26:16;37.30;48.60
41437;DHT22;27178;49.460;10.850;2023-09-12T15:28:46;37.30;48.50
41437;DHT22;27178;49.460;10.850;2023-09-12T15:31:14;37.20;48.40
41437;DHT22;27178;49.460;10.850;2023-09-12T15:33:43;37.20;48.30